UUWWURKA

Guest
Details From UUWW - Vnukovo
To URKA - Vityazevo
Flight Number -
Tags Generated
Created
Modified
Stats Distance 637 nm / 1,180 km
Max Altitude 0 ft / 0 m
Waypoints 4
Social Downloads 1
Likes 0
Share VATSIM

Download

Looking for another format? Having issues loading an existing format? Contact us
Advertisement - Login to hide

Notes

Generated

Route

UUWW GOBUN ANAKA URKA

ID Type Via Altitude Latitude Longitude Leg Dist Tot Dist Heading (true) Name
O UUWW APT - 0 ft / 0 m 55.58804˚ 37.24603˚ - 0 nm - -
GOBUN FIX - 0 ft / 0 m 50.30167˚ 37.64000˚ 317 nm 317 nm 177° / 178° -
ANAKA FIX - 0 ft / 0 m 45.00167˚ 37.34833˚ 318 nm 636 nm 182° / 182° -
O URKA APT - 0 ft / 0 m 44.99374˚ 37.33714˚ 0 nm 636 nm 225° / 225° -

Altitude Profile

Advertisement - Login to hide

Weather


0- 5 10 15 20 25 30 35+ Temperature / ° C

Clouds and Precipitation
Forecast for 2017-12-13 00:00 UTC. Updated 24 minutes ago

Ground ~20,000 ft ~40,000 ft Winds

UUWW

Details ICAO UUWW (VKO)
Name VNUKOVO
Region Russia
Timezone Europe/Moscow (UTC+3.0)
Stats Elevation 685 ft / 209 m (AMSL)
Location 55.596061° 37.267664°
Runways 2
Magnetic Variation 10.959° E

METAR

UUWW 122330Z 15003MPS 0800 0750W R24/1800U FG VV001 02/01 Q1008 R24/520245 TEMPO 0500 FG RMK QBB040

Decode

TAF

TAF AMD UUWW 122218Z 1222/1321 15005MPS 1000 BR OVC002 TX02/1312Z TNM00/1321Z TEMPO 1222/1308 0300 FG OVC001 BECMG 1300/1302 19005MPS FM130800 25005MPS 9999 BKN010

Decode

Departure Runways

ID Width Length Bearing (true) Bearing (mag) Surface Threshold Offset Overrun Length
02 197 ft / 60 m 9,993 ft / 3,046 m 23.36° 12.40° Asphalt 0 ft / 0 m 140 ft / 43 m
06 197 ft / 60 m 9,785 ft / 2,982 m 68.26° 57.30° Asphalt 0 ft / 0 m 250 ft / 76 m
20 197 ft / 60 m 9,993 ft / 3,046 m 203.37° 192.41° Asphalt 0 ft / 0 m 150 ft / 46 m
24 197 ft / 60 m 9,785 ft / 2,982 m 248.29° 237.33° Asphalt 0 ft / 0 m 260 ft / 79 m

URKA

Details ICAO URKA (AAQ)
Name Vityazevo
Region Russia
Timezone Europe/Moscow (UTC+3.0)
Stats Elevation 173 ft / 53 m (AMSL)
Location 45.001895° 37.347609°
Runways 2
Magnetic Variation 7.171° E

METAR

URKA 122330Z AUTO 16004MPS 9999 // NCD 09/08 Q1020 RMK QFE761/1015

Decode

TAF

TAF AMD TAF AMD URKA 121851Z 1218/1318 CNL

Decode

Destination Runways

ID Width Length Bearing (true) Bearing (mag) Surface Threshold Offset Overrun Length
04 138 ft / 42 m 7,961 ft / 2,426 m 43.79° 36.62° Concrete 0 ft / 0 m 157 ft / 48 m
04R 312 ft / 95 m 8,009 ft / 2,441 m 43.78° 36.61° Grass 0 ft / 0 m 0 ft / 0 m
22 138 ft / 42 m 7,961 ft / 2,426 m 223.81° 216.64° Concrete 0 ft / 0 m 164 ft / 50 m
22L 312 ft / 95 m 8,009 ft / 2,441 m 223.80° 216.63° Grass 0 ft / 0 m 0 ft / 0 m

Popular Alternatives